Weather at Woodley Aerial Spray Airport

Public forecast

Using degrees Fahrenheit for public forecast. Weather courtesy of forecast.io.

Closest aviation weather report (METAR) to Woodley Aerial Spray Airport

Closest report is Whiteside County Airport-Joseph H Bittorf Field, 12.7 nm (23.5 km) N. Retrieved 2021/08/02 11:32 UTC (7 minutes ago):

KSQI 021132Z 00000KT 4SM BR CLR 11/11 A3020 RMK AO2

Closest aviation forecast (TAF) to Woodley Aerial Spray Airport

Closest forecast is Quad City International Airport, 36.6 nm (67.7 km) W. Retrieved 2021/08/02 06:22 UTC (5 hours ago):

TAF KMLI 020520Z 0206/0306 VRB05KT P6SM SCT250 FM021500 36005KT P6SM SCT050